createdAt,value
2023-09-21T00:00:16.940Z,2.7
2023-09-21T00:01:33.081Z,2.8
2023-09-21T00:02:49.204Z,2.6
2023-09-21T00:04:05.336Z,2.4
2023-09-21T00:05:21.470Z,2.5
2023-09-21T00:06:37.595Z,2.3
2023-09-21T00:07:52.750Z,2.6
2023-09-21T00:09:08.892Z,2.7
2023-09-21T00:10:25.017Z,2.8
2023-09-21T00:11:41.148Z,3.1
2023-09-21T00:12:57.276Z,3.1
2023-09-21T00:14:13.414Z,2.6
2023-09-21T00:15:29.540Z,2.5
2023-09-21T00:16:45.681Z,2.4
2023-09-21T00:18:01.804Z,2.3
2023-09-21T00:19:17.943Z,3.3
2023-09-21T00:20:34.070Z,3.2
2023-09-21T00:21:50.203Z,3.3
2023-09-21T00:23:06.341Z,3.3
2023-09-21T00:24:22.468Z,3.3
2023-09-21T00:25:37.622Z,3
2023-09-21T00:26:53.750Z,3.2
2023-09-21T00:28:09.869Z,3.4
2023-09-21T00:29:26.018Z,2.8
2023-09-21T00:30:42.142Z,3.1
2023-09-21T00:31:58.281Z,3
2023-09-21T00:33:14.410Z,2.8
2023-09-21T00:34:30.533Z,2.8
2023-09-21T00:35:46.683Z,2.9
2023-09-21T00:37:02.802Z,2.7
2023-09-21T00:38:18.941Z,2.9
2023-09-21T00:39:35.066Z,2.9
2023-09-21T00:40:51.200Z,2.8
2023-09-21T00:42:06.339Z,2.8
2023-09-21T00:43:22.489Z,2.7
2023-09-21T00:44:38.616Z,3.1
2023-09-21T00:45:54.750Z,2.9
2023-09-21T00:47:10.882Z,2.7
2023-09-21T00:48:27.014Z,3
2023-09-21T00:49:43.145Z,2.9
2023-09-21T00:50:59.275Z,3.2
2023-09-21T00:52:15.410Z,2.8
2023-09-21T00:53:31.543Z,2.6
2023-09-21T00:54:47.673Z,2.6
2023-09-21T00:56:03.800Z,2.9
2023-09-21T00:57:19.937Z,3
2023-09-21T00:58:36.070Z,3
2023-09-21T00:59:52.201Z,2.6
2023-09-21T01:01:07.351Z,2.4
2023-09-21T01:02:23.482Z,3
2023-09-21T01:03:39.602Z,2.8
2023-09-21T01:04:55.748Z,3.4
2023-09-21T01:06:11.878Z,2.7
2023-09-21T01:07:28.019Z,3.2
2023-09-21T01:08:44.151Z,3
2023-09-21T01:10:00.277Z,2.4
2023-09-21T01:11:16.413Z,3.3
2023-09-21T01:12:32.542Z,3
2023-09-21T01:13:48.674Z,2.7
2023-09-21T01:15:04.805Z,3.3
2023-09-21T01:16:20.931Z,2.7
2023-09-21T01:17:36.087Z,3.1
2023-09-21T01:18:52.217Z,2.8
2023-09-21T01:20:08.355Z,2.8
2023-09-21T01:21:24.489Z,2.7
2023-09-21T01:22:40.612Z,2.8
2023-09-21T01:23:56.748Z,2.9
2023-09-21T01:25:12.884Z,2.5
2023-09-21T01:26:29.011Z,3
2023-09-21T01:27:45.153Z,2.7
2023-09-21T01:29:01.275Z,2.7
2023-09-21T01:30:17.408Z,2.8
2023-09-21T01:31:33.542Z,2.6
2023-09-21T01:32:49.670Z,2.8
2023-09-21T01:34:04.826Z,2.7
2023-09-21T01:35:20.959Z,2.8
2023-09-21T01:36:37.086Z,2.7
2023-09-21T01:37:53.215Z,2.8
2023-09-21T01:39:09.354Z,3.1
2023-09-21T01:40:25.480Z,2.8
2023-09-21T01:41:41.614Z,3.3
2023-09-21T01:42:57.738Z,3.2
2023-09-21T01:44:13.883Z,3.1
2023-09-21T01:45:30.008Z,2.9
2023-09-21T01:46:46.142Z,3.4
2023-09-21T01:48:02.271Z,3
2023-09-21T01:49:18.411Z,3.1
2023-09-21T01:50:34.543Z,3.1
2023-09-21T01:51:50.667Z,3
2023-09-21T01:53:06.798Z,2.7
2023-09-21T01:54:21.966Z,2.8
2023-09-21T01:55:38.090Z,2.6
2023-09-21T01:56:54.232Z,2.8
2023-09-21T01:58:10.361Z,2.9
2023-09-21T01:59:26.491Z,2.8
2023-09-21T02:00:42.617Z,2.5
2023-09-21T02:01:58.757Z,2.9
2023-09-21T02:03:14.889Z,2.5
2023-09-21T02:04:31.027Z,2.9
2023-09-21T02:05:47.150Z,2.9
2023-09-21T02:07:03.289Z,2.6
2023-09-21T02:08:19.415Z,2.7
2023-09-21T02:09:35.553Z,2.7
2023-09-21T02:10:50.699Z,2.6
2023-09-21T02:12:06.837Z,3
2023-09-21T02:13:22.960Z,2.8
2023-09-21T02:14:39.102Z,3
2023-09-21T02:15:55.231Z,2.9
2023-09-21T02:17:11.361Z,2.7
2023-09-21T02:18:27.497Z,2.9
2023-09-21T02:19:43.629Z,2.8
2023-09-21T02:20:59.755Z,2.5
2023-09-21T02:22:15.884Z,3.1
2023-09-21T02:23:32.016Z,2.9
2023-09-21T02:24:48.155Z,2.9
2023-09-21T02:26:04.282Z,2.5
2023-09-21T02:27:19.435Z,2.5
2023-09-21T02:28:35.558Z,2.6
2023-09-21T02:29:51.705Z,3
2023-09-21T02:31:07.831Z,2.9
2023-09-21T02:32:23.964Z,2.7
2023-09-21T02:33:40.100Z,3.1
2023-09-21T02:34:56.232Z,3
2023-09-21T02:36:12.361Z,3
2023-09-21T02:37:28.490Z,2.9
2023-09-21T02:38:44.622Z,2.8
2023-09-21T02:40:00.762Z,2.9
2023-09-21T02:41:16.895Z,2.9
2023-09-21T02:42:33.026Z,3.2
2023-09-21T02:43:49.157Z,3.2
2023-09-21T02:45:04.300Z,2.8
2023-09-21T02:46:20.435Z,3.1
2023-09-21T02:47:36.571Z,2.9
2023-09-21T02:48:52.701Z,3.1
2023-09-21T02:50:08.837Z,3.1
2023-09-21T02:51:24.961Z,3.2
2023-09-21T02:52:41.103Z,3.1
2023-09-21T02:53:57.230Z,2.8
2023-09-21T02:55:13.361Z,2.9
2023-09-21T02:56:29.492Z,3.3
2023-09-21T02:57:45.624Z,3.2
2023-09-21T02:59:01.761Z,3.1
2023-09-21T03:00:17.892Z,2.9
2023-09-21T03:01:33.035Z,3.5
2023-09-21T03:02:49.176Z,3.2
2023-09-21T03:04:05.301Z,3.3
2023-09-21T03:05:21.433Z,3.8
2023-09-21T03:06:37.567Z,3.3
2023-09-21T03:07:53.700Z,3
2023-09-21T03:09:09.833Z,3.3
2023-09-21T03:10:25.964Z,3.2
2023-09-21T03:11:42.105Z,3.3
2023-09-21T03:12:58.220Z,3.2
2023-09-21T03:14:14.356Z,3
2023-09-21T03:15:30.485Z,3
2023-09-21T03:16:46.622Z,3
2023-09-21T03:18:02.000Z,3.5
2023-09-21T03:19:17.907Z,3
2023-09-21T03:20:34.044Z,3.1
2023-09-21T03:21:50.172Z,3.1
2023-09-21T03:23:06.302Z,3.4
2023-09-21T03:24:22.430Z,3.3
2023-09-21T03:25:38.563Z,3.1
2023-09-21T03:26:54.694Z,3.2
2023-09-21T03:28:10.832Z,3.1
2023-09-21T03:29:26.968Z,3.4
2023-09-21T03:30:43.095Z,3.1
2023-09-21T03:31:59.227Z,3.5
2023-09-21T03:33:15.358Z,3.8
2023-09-21T03:34:31.487Z,3.5
2023-09-21T03:35:46.638Z,3.6
2023-09-21T03:37:02.771Z,3.4
2023-09-21T03:38:18.911Z,3.4
2023-09-21T03:39:35.034Z,3.3
2023-09-21T03:40:51.156Z,3.2
2023-09-21T03:42:07.305Z,3.4
2023-09-21T03:43:23.438Z,3.4
2023-09-21T03:44:39.561Z,3.3
2023-09-21T03:45:55.695Z,3.7
2023-09-21T03:47:11.827Z,3.5
2023-09-21T03:48:27.961Z,3.5
2023-09-21T03:49:44.099Z,4.1
2023-09-21T03:51:00.229Z,3.7
2023-09-21T03:52:16.355Z,4
2023-09-21T03:53:31.506Z,3.6
2023-09-21T03:54:47.640Z,3.5
2023-09-21T03:56:03.770Z,3.6
2023-09-21T03:57:19.901Z,3.7
2023-09-21T03:58:36.037Z,3.8
2023-09-21T03:59:52.170Z,3.9
2023-09-21T04:01:08.298Z,3.8
2023-09-21T04:02:24.428Z,3.2
2023-09-21T04:03:40.563Z,3.7
2023-09-21T04:04:56.690Z,4.2
2023-09-21T04:06:12.829Z,4
2023-09-21T04:07:28.963Z,4.4
2023-09-21T04:08:45.101Z,3.8
2023-09-21T04:10:00.243Z,4.3
2023-09-21T04:11:16.373Z,4.5
2023-09-21T04:12:32.505Z,4.2
2023-09-21T04:13:48.643Z,4.5
2023-09-21T04:15:04.768Z,3.8
2023-09-21T04:16:20.902Z,4.3
2023-09-21T04:17:37.033Z,4
2023-09-21T04:18:53.152Z,4.1
2023-09-21T04:20:09.294Z,4.1
2023-09-21T04:21:25.430Z,4.7
2023-09-21T04:22:41.553Z,4.2
2023-09-21T04:23:57.700Z,4.1
2023-09-21T04:25:13.830Z,4.3
2023-09-21T04:26:28.974Z,3.5
2023-09-21T04:27:45.114Z,4.2
2023-09-21T04:29:01.247Z,4
2023-09-21T04:30:17.373Z,4.3
2023-09-21T04:31:33.500Z,4
2023-09-21T04:32:49.644Z,4.4
2023-09-21T04:34:05.768Z,4.3
2023-09-21T04:35:21.907Z,4.5
2023-09-21T04:36:38.038Z,4.1
2023-09-21T04:37:54.167Z,4.1
2023-09-21T04:39:10.297Z,4.1
2023-09-21T04:40:26.431Z,4.3
2023-09-21T04:41:42.563Z,4
2023-09-21T04:42:58.694Z,4.3
2023-09-21T04:44:13.848Z,4.5
2023-09-21T04:45:29.976Z,4.3
2023-09-21T04:46:46.105Z,4.3
2023-09-21T04:48:02.243Z,5.1
2023-09-21T04:49:18.372Z,4.5
2023-09-21T04:50:34.510Z,4
2023-09-21T04:51:50.641Z,4.5
2023-09-21T04:53:06.765Z,3.9
2023-09-21T04:54:22.909Z,4.4
2023-09-21T04:55:39.037Z,4.4
2023-09-21T04:56:55.161Z,4.3
2023-09-21T04:58:11.303Z,4.8
2023-09-21T04:59:27.420Z,4.4
2023-09-21T05:00:43.560Z,5.2
2023-09-21T05:01:58.708Z,4.6
2023-09-21T05:03:14.840Z,4.6
2023-09-21T05:04:30.970Z,4.5
2023-09-21T05:05:47.110Z,3.9
2023-09-21T05:07:03.240Z,4
2023-09-21T05:08:19.368Z,4.3
2023-09-21T05:09:35.504Z,4.4
2023-09-21T05:10:51.632Z,5.3
2023-09-21T05:12:07.766Z,5.9
2023-09-21T05:13:23.899Z,4.9
2023-09-21T05:14:40.030Z,4.8
2023-09-21T05:15:56.150Z,4.6
2023-09-21T05:17:12.292Z,4.3
2023-09-21T05:18:28.435Z,4.3
2023-09-21T05:19:43.577Z,5
2023-09-21T05:20:59.708Z,4.5
2023-09-21T05:22:15.844Z,3.9
2023-09-21T05:23:31.974Z,4.4
2023-09-21T05:24:48.103Z,4.3
2023-09-21T05:26:04.224Z,4.5
2023-09-21T05:27:20.369Z,4.3
2023-09-21T05:28:36.498Z,4.2
2023-09-21T05:29:52.630Z,4.4
2023-09-21T05:31:08.764Z,4.2
2023-09-21T05:32:24.895Z,4
2023-09-21T05:33:41.031Z,4
2023-09-21T05:34:57.000Z,4.2
2023-09-21T05:36:13.288Z,4.3
2023-09-21T05:37:28.440Z,4.1
2023-09-21T05:38:44.585Z,4.8
2023-09-21T05:40:00.703Z,4.9
2023-09-21T05:41:16.841Z,4
2023-09-21T05:42:32.971Z,4.1
2023-09-21T05:43:49.107Z,4.3
2023-09-21T05:45:05.227Z,4.1
2023-09-21T05:46:21.369Z,4.6
2023-09-21T05:47:37.497Z,3.6
2023-09-21T05:48:53.650Z,3.7
2023-09-21T05:50:09.763Z,3.7
2023-09-21T05:51:25.896Z,4.1
2023-09-21T05:52:42.017Z,4
2023-09-21T05:53:58.167Z,4.2
2023-09-21T05:55:13.311Z,4.3
2023-09-21T05:56:29.443Z,3.9
2023-09-21T05:57:45.579Z,3.9
2023-09-21T05:59:01.713Z,4.5
2023-09-21T06:00:17.840Z,4
2023-09-21T06:01:33.972Z,4
2023-09-21T06:02:50.107Z,4.2
2023-09-21T06:04:06.231Z,4.3
2023-09-21T06:05:22.361Z,4.2
2023-09-21T06:06:38.506Z,4
2023-09-21T06:07:54.638Z,4
2023-09-21T06:09:10.758Z,4.3
2023-09-21T06:10:25.930Z,4.6
2023-09-21T06:11:42.053Z,6.6
2023-09-21T06:12:58.000Z,4.4
2023-09-21T06:14:14.314Z,3.9
2023-09-21T06:15:30.450Z,4.2
2023-09-21T06:16:46.583Z,3.7
2023-09-21T06:18:02.711Z,4
2023-09-21T06:19:18.000Z,4.8
2023-09-21T06:20:34.987Z,4.6
2023-09-21T06:21:51.100Z,4.3
2023-09-21T06:23:07.244Z,4.1
2023-09-21T06:24:23.377Z,4.2
2023-09-21T06:25:39.506Z,4
2023-09-21T06:26:55.640Z,4.1
2023-09-21T06:28:10.798Z,4.8
2023-09-21T06:29:26.928Z,4.6
2023-09-21T06:30:43.063Z,4.9
2023-09-21T06:31:59.190Z,4
2023-09-21T06:33:15.322Z,4.1
2023-09-21T06:34:31.440Z,4
2023-09-21T06:35:47.590Z,4.5
2023-09-21T06:37:03.713Z,4.3
2023-09-21T06:38:19.853Z,4
2023-09-21T06:39:35.977Z,4.8
2023-09-21T06:40:52.101Z,4.2
2023-09-21T06:42:08.246Z,4
2023-09-21T06:43:24.373Z,4
2023-09-21T06:44:40.508Z,3.9
2023-09-21T06:45:55.651Z,3.7
2023-09-21T06:47:11.789Z,3.8
2023-09-21T06:48:27.920Z,4
2023-09-21T06:49:44.057Z,3.9
2023-09-21T06:51:00.194Z,3.7
2023-09-21T06:52:16.323Z,3.8
2023-09-21T06:53:32.448Z,3.7
2023-09-21T06:54:48.588Z,4.2
2023-09-21T06:56:04.722Z,4.1
2023-09-21T06:57:20.847Z,3.8
2023-09-21T06:58:36.989Z,4.1
2023-09-21T06:59:53.117Z,3.8
2023-09-21T07:01:09.245Z,4.7
2023-09-21T07:02:24.392Z,4.2
2023-09-21T07:03:40.534Z,4.1
2023-09-21T07:04:56.653Z,4.1
2023-09-21T07:06:12.790Z,4.7
2023-09-21T07:07:28.924Z,4.3
2023-09-21T07:08:45.059Z,4.8
2023-09-21T07:10:01.186Z,4.6
2023-09-21T07:11:17.326Z,3.9
2023-09-21T07:12:33.452Z,4.1
2023-09-21T07:13:49.581Z,4.8
2023-09-21T07:15:05.710Z,4.5
2023-09-21T07:16:21.857Z,4.2
2023-09-21T07:17:37.978Z,3.9
2023-09-21T07:18:53.132Z,4.2
2023-09-21T07:20:09.257Z,4.2
2023-09-21T07:21:25.396Z,4
2023-09-21T07:22:41.520Z,4.1
2023-09-21T07:23:57.660Z,3.8
2023-09-21T07:25:13.790Z,4.1
2023-09-21T07:26:29.927Z,4
2023-09-21T07:27:46.060Z,3.7
2023-09-21T07:29:02.194Z,4.1
2023-09-21T07:30:18.328Z,3.9
2023-09-21T07:31:34.457Z,3.6
2023-09-21T07:32:50.592Z,4.3
2023-09-21T07:34:06.712Z,4.1
2023-09-21T07:35:21.861Z,4.1
2023-09-21T07:36:37.999Z,4.4
2023-09-21T07:37:54.126Z,4
2023-09-21T07:39:10.262Z,3.7
2023-09-21T07:40:26.385Z,3.9
2023-09-21T07:41:42.523Z,3.6
2023-09-21T07:42:58.652Z,4
2023-09-21T07:44:14.787Z,3.6
2023-09-21T07:45:30.906Z,3.5
2023-09-21T07:46:47.060Z,3.9
2023-09-21T07:48:03.185Z,3.6
2023-09-21T07:49:19.318Z,3.7
2023-09-21T07:50:35.449Z,3.8
2023-09-21T07:51:50.599Z,4.2
2023-09-21T07:53:06.725Z,3.5
2023-09-21T07:54:22.864Z,3.3
2023-09-21T07:55:38.987Z,3.8
2023-09-21T07:56:55.117Z,5.3
2023-09-21T07:58:11.257Z,4.6
2023-09-21T07:59:27.393Z,3.7
2023-09-21T08:00:43.527Z,3.7
2023-09-21T08:01:59.656Z,4.1
2023-09-21T08:03:15.781Z,4.1
2023-09-21T08:04:31.922Z,3.8
2023-09-21T08:05:48.044Z,3.2
2023-09-21T08:07:04.178Z,3.9
2023-09-21T08:08:20.311Z,4.1
2023-09-21T08:09:36.446Z,4.2
2023-09-21T08:10:51.591Z,4.3
2023-09-21T08:12:07.724Z,3.7
2023-09-21T08:13:23.851Z,3.9
2023-09-21T08:14:39.997Z,3.9
2023-09-21T08:15:56.123Z,3.3
2023-09-21T08:17:12.251Z,3.3
2023-09-21T08:18:28.384Z,3.4
2023-09-21T08:19:44.512Z,3.9
2023-09-21T08:21:00.635Z,3.7
2023-09-21T08:22:16.781Z,3.7
2023-09-21T08:23:32.910Z,3.2
2023-09-21T08:24:49.040Z,3
2023-09-21T08:26:05.173Z,3.6
2023-09-21T08:27:20.321Z,3.5
2023-09-21T08:28:36.463Z,3.7
2023-09-21T08:29:52.577Z,3.5
2023-09-21T08:31:08.725Z,3.6
2023-09-21T08:32:24.856Z,3.4
2023-09-21T08:33:40.984Z,4
2023-09-21T08:34:57.117Z,3
2023-09-21T08:36:13.252Z,3.1
2023-09-21T08:37:29.381Z,3.2
2023-09-21T08:38:45.512Z,2.9
2023-09-21T08:40:01.647Z,2.8
2023-09-21T08:41:17.783Z,3.1
2023-09-21T08:42:33.902Z,3.4
2023-09-21T08:43:49.067Z,3.2
2023-09-21T08:45:05.183Z,3.7
2023-09-21T08:46:21.321Z,2.8
2023-09-21T08:47:37.454Z,3.3
2023-09-21T08:48:53.592Z,3.1
2023-09-21T08:50:09.722Z,3.8
2023-09-21T08:51:25.841Z,3.9
2023-09-21T08:52:41.988Z,3.3
2023-09-21T08:53:58.112Z,3.8
2023-09-21T08:55:14.244Z,3.7
2023-09-21T08:56:30.375Z,3.7
2023-09-21T08:57:46.508Z,3.8
2023-09-21T08:59:02.645Z,3.2
2023-09-21T09:00:17.792Z,3.6
2023-09-21T09:01:33.916Z,3.5
2023-09-21T09:02:50.051Z,3.6
2023-09-21T09:04:06.191Z,3.3
2023-09-21T09:05:22.323Z,3.7
2023-09-21T09:06:38.450Z,2.7
2023-09-21T09:07:54.584Z,3.2
2023-09-21T09:09:10.719Z,3.2
2023-09-21T09:10:26.846Z,2.3
2023-09-21T09:11:42.983Z,2.8
2023-09-21T09:12:59.100Z,2.9
2023-09-21T09:14:15.251Z,3.4
2023-09-21T09:15:31.380Z,2.5
2023-09-21T09:16:47.503Z,2
2023-09-21T09:18:02.652Z,2.9
2023-09-21T09:19:18.787Z,2.3
2023-09-21T09:20:34.926Z,2.4
2023-09-21T09:21:51.056Z,2.7
2023-09-21T09:23:07.181Z,2.2
2023-09-21T09:24:23.318Z,2.4
2023-09-21T09:25:39.446Z,2
2023-09-21T09:26:55.581Z,2
2023-09-21T09:28:11.713Z,2.3
2023-09-21T09:29:27.000Z,2
2023-09-21T09:30:43.982Z,2
2023-09-21T09:32:00.115Z,2
2023-09-21T09:33:16.240Z,1.8
2023-09-21T09:34:31.388Z,1.6
2023-09-21T09:35:47.522Z,1.5
2023-09-21T09:37:03.659Z,1.5
2023-09-21T09:38:19.781Z,1.9
2023-09-21T09:39:35.920Z,1.6
2023-09-21T09:40:52.055Z,1.7
2023-09-21T09:42:08.189Z,1.3
2023-09-21T09:43:24.312Z,1.9
2023-09-21T09:44:40.447Z,2
2023-09-21T09:45:56.581Z,1.8
2023-09-21T09:47:12.715Z,1.7
2023-09-21T09:48:28.841Z,1.5
2023-09-21T09:49:44.980Z,1.6
2023-09-21T09:51:00.131Z,2
2023-09-21T09:52:16.255Z,2
2023-09-21T09:53:32.395Z,2.3
2023-09-21T09:54:48.528Z,1.7
2023-09-21T09:56:04.652Z,1.5
2023-09-21T09:57:20.785Z,2.8
2023-09-21T09:58:36.910Z,1.7
2023-09-21T09:59:53.038Z,1.7
2023-09-21T10:01:09.183Z,1.5
2023-09-21T10:02:25.313Z,1.7
2023-09-21T10:03:41.440Z,1.7
2023-09-21T10:04:57.583Z,1.7
2023-09-21T10:06:13.711Z,1.2
2023-09-21T10:07:28.867Z,1.7
2023-09-21T10:08:44.988Z,1.7
2023-09-21T10:10:01.127Z,1.6
2023-09-21T10:11:17.257Z,1.3
2023-09-21T10:12:33.391Z,1.6
2023-09-21T10:13:49.517Z,1.3
2023-09-21T10:15:05.653Z,1.2
2023-09-21T10:16:21.778Z,1.4
2023-09-21T10:17:37.915Z,1.3
2023-09-21T10:18:54.041Z,1.5
2023-09-21T10:20:10.182Z,1.5
2023-09-21T10:21:26.312Z,1.6
2023-09-21T10:22:42.451Z,1.6
2023-09-21T10:23:57.591Z,1.5
2023-09-21T10:25:12.743Z,1.5
2023-09-21T10:26:28.887Z,1.4
2023-09-21T10:27:45.016Z,1.3
2023-09-21T10:29:01.141Z,1.4
2023-09-21T10:30:17.285Z,1.5
2023-09-21T10:31:33.427Z,1.7
2023-09-21T10:32:49.545Z,1.8
2023-09-21T10:34:05.682Z,1.3
2023-09-21T10:35:21.804Z,1.5
2023-09-21T10:36:37.938Z,1.4
2023-09-21T10:37:54.078Z,1.4
2023-09-21T10:39:10.200Z,1.3
2023-09-21T10:40:26.334Z,1.5
2023-09-21T10:41:41.479Z,1.5
2023-09-21T10:42:57.620Z,1.3
2023-09-21T10:44:13.746Z,1.3
2023-09-21T10:45:29.880Z,1.2
2023-09-21T10:46:46.012Z,1.1
2023-09-21T10:48:02.154Z,1
2023-09-21T10:49:18.277Z,1.1
2023-09-21T10:50:34.410Z,1.2
2023-09-21T10:51:50.552Z,1.2
2023-09-21T10:53:06.675Z,0.8
2023-09-21T10:54:22.807Z,0.8
2023-09-21T10:55:38.947Z,0.8
2023-09-21T10:56:55.074Z,1.2
2023-09-21T10:58:11.201Z,1
2023-09-21T10:59:26.360Z,0.7
2023-09-21T11:00:42.492Z,0.9
2023-09-21T11:01:58.608Z,0.7
2023-09-21T11:03:14.755Z,0.9
2023-09-21T11:04:30.882Z,1.3
2023-09-21T11:05:47.010Z,1.2
2023-09-21T11:07:03.150Z,0.9
2023-09-21T11:08:19.272Z,1.1
2023-09-21T11:09:35.414Z,0.9
2023-09-21T11:10:51.546Z,1
2023-09-21T11:12:07.674Z,1.2
2023-09-21T11:13:23.801Z,0.9
2023-09-21T11:14:39.940Z,1.4
2023-09-21T11:15:55.000Z,1.1
2023-09-21T11:17:11.220Z,1.1
2023-09-21T11:18:27.347Z,1
2023-09-21T11:19:43.480Z,0.7
2023-09-21T11:20:59.617Z,1.3
2023-09-21T11:22:15.753Z,1.1
2023-09-21T11:23:31.886Z,1
2023-09-21T11:24:48.019Z,1
2023-09-21T11:26:04.147Z,1
2023-09-21T11:27:20.281Z,1.3
2023-09-21T11:28:36.415Z,1.1
2023-09-21T11:29:52.539Z,1
2023-09-21T11:31:08.670Z,1
2023-09-21T11:32:23.818Z,1.1
2023-09-21T11:33:39.950Z,1.1
2023-09-21T11:34:56.093Z,0.9
2023-09-21T11:36:12.220Z,1
2023-09-21T11:37:28.345Z,1
2023-09-21T11:38:44.489Z,1
2023-09-21T11:40:00.620Z,0.9
2023-09-21T11:41:16.750Z,1.1
2023-09-21T11:42:32.886Z,1.3
2023-09-21T11:43:49.008Z,0.9
2023-09-21T11:45:05.140Z,0.9
2023-09-21T11:46:21.277Z,1
2023-09-21T11:47:37.399Z,1
2023-09-21T11:48:53.524Z,1
2023-09-21T11:50:08.692Z,0.9
2023-09-21T11:51:24.819Z,1.1
2023-09-21T11:52:40.957Z,0.9
2023-09-21T11:53:57.087Z,0.8
2023-09-21T11:55:13.220Z,0.8
2023-09-21T11:56:29.351Z,0.9
2023-09-21T11:57:45.477Z,1
2023-09-21T11:59:01.616Z,1.2
2023-09-21T12:00:17.740Z,0.9
2023-09-21T12:01:33.872Z,1
2023-09-21T12:02:50.006Z,1
2023-09-21T12:04:06.149Z,1
2023-09-21T12:05:22.281Z,1.2
2023-09-21T12:06:37.420Z,0.9
2023-09-21T12:07:53.551Z,1
2023-09-21T12:09:09.687Z,0.9
2023-09-21T12:10:25.818Z,1.1
2023-09-21T12:11:41.953Z,0.7
2023-09-21T12:12:58.080Z,0.9
2023-09-21T12:14:14.213Z,0.9
2023-09-21T12:15:30.339Z,0.9
2023-09-21T12:16:46.476Z,1
2023-09-21T12:18:02.616Z,0.9
2023-09-21T12:19:18.740Z,1.6
2023-09-21T12:20:34.880Z,1.1
2023-09-21T12:21:51.006Z,1.2
2023-09-21T12:23:06.160Z,1.2
2023-09-21T12:24:22.290Z,1.2
2023-09-21T12:25:38.420Z,0.9
2023-09-21T12:26:54.562Z,1.9
2023-09-21T12:28:10.690Z,0.8
2023-09-21T12:29:26.819Z,1
2023-09-21T12:30:42.948Z,1.1
2023-09-21T12:31:59.081Z,1
2023-09-21T12:33:15.222Z,1.4
2023-09-21T12:34:31.355Z,1.3
2023-09-21T12:35:47.486Z,1.1
2023-09-21T12:37:03.603Z,0.9
2023-09-21T12:38:19.741Z,1
2023-09-21T12:39:34.891Z,1
2023-09-21T12:40:51.024Z,0.9
2023-09-21T12:42:07.153Z,1
2023-09-21T12:43:23.281Z,1
2023-09-21T12:44:39.420Z,1.3
2023-09-21T12:45:55.554Z,1.2
2023-09-21T12:47:11.687Z,1.1
2023-09-21T12:48:27.814Z,1.1
2023-09-21T12:49:43.948Z,1.1
2023-09-21T12:51:00.082Z,1.5
2023-09-21T12:52:16.220Z,0.8
2023-09-21T12:53:32.355Z,1
2023-09-21T12:54:48.479Z,1.2
2023-09-21T12:56:03.613Z,0.9
2023-09-21T12:57:19.764Z,1.2
2023-09-21T12:58:35.896Z,0.9
2023-09-21T12:59:52.025Z,0.8
2023-09-21T13:01:08.157Z,1
2023-09-21T13:02:24.286Z,0.9
2023-09-21T13:03:40.420Z,1
2023-09-21T13:04:56.551Z,1
2023-09-21T13:06:12.682Z,0.9
2023-09-21T13:07:28.814Z,0.9
2023-09-21T13:08:44.948Z,0.9
2023-09-21T13:10:01.082Z,0.9
2023-09-21T13:11:17.214Z,1
2023-09-21T13:12:33.346Z,1
2023-09-21T13:13:48.503Z,1.1
2023-09-21T13:15:04.635Z,1.3
2023-09-21T13:16:20.759Z,1.6
2023-09-21T13:17:36.893Z,1
2023-09-21T13:18:53.018Z,0.9
2023-09-21T13:20:09.155Z,1.2
2023-09-21T13:21:25.285Z,1
2023-09-21T13:22:41.423Z,1.1
2023-09-21T13:23:57.553Z,1.1
2023-09-21T13:25:13.680Z,1.2
2023-09-21T13:26:29.811Z,1.4
2023-09-21T13:27:45.942Z,1.5
2023-09-21T13:29:02.079Z,1.3
2023-09-21T13:30:18.208Z,1.3
2023-09-21T13:31:33.366Z,1.3
2023-09-21T13:32:49.491Z,1.1
2023-09-21T13:34:05.623Z,1.1
2023-09-21T13:35:21.757Z,1.3
2023-09-21T13:36:37.888Z,1
2023-09-21T13:37:54.017Z,1.2
2023-09-21T13:39:10.151Z,1.2
2023-09-21T13:40:26.289Z,1.1
2023-09-21T13:41:42.413Z,1.1
2023-09-21T13:42:58.553Z,1.1
2023-09-21T13:44:14.682Z,1
2023-09-21T13:45:30.811Z,1.3
2023-09-21T13:46:46.943Z,1.2
2023-09-21T13:48:02.094Z,1.3
2023-09-21T13:49:18.226Z,1.3
2023-09-21T13:50:34.360Z,1.1
2023-09-21T13:51:50.476Z,1.1
2023-09-21T13:53:06.623Z,1.6
2023-09-21T13:54:22.755Z,1
2023-09-21T13:55:38.880Z,0.9
2023-09-21T13:56:55.013Z,1.2
2023-09-21T13:58:11.152Z,1.3
2023-09-21T13:59:27.280Z,1.3
2023-09-21T14:00:43.415Z,1.2
2023-09-21T14:01:59.546Z,1.4
2023-09-21T14:03:15.688Z,0.9
2023-09-21T14:04:30.834Z,1.3
2023-09-21T14:05:46.955Z,1.2
2023-09-21T14:07:03.087Z,1
2023-09-21T14:08:19.209Z,1.1
2023-09-21T14:09:35.358Z,1.2
2023-09-21T14:10:51.490Z,1
2023-09-21T14:12:07.621Z,1.1
2023-09-21T14:13:23.754Z,1.2
2023-09-21T14:14:39.884Z,1.2
2023-09-21T14:15:56.021Z,1.2
2023-09-21T14:17:12.150Z,1.2
2023-09-21T14:18:28.287Z,1.1
2023-09-21T14:19:44.408Z,1.2
2023-09-21T14:21:00.551Z,1.6
2023-09-21T14:22:15.693Z,1.5
2023-09-21T14:23:31.824Z,1.1
2023-09-21T14:24:47.957Z,1.1
2023-09-21T14:26:04.079Z,1.3
2023-09-21T14:27:20.224Z,1.1
2023-09-21T14:28:36.351Z,1.2
2023-09-21T14:29:52.491Z,1.4
2023-09-21T14:31:08.621Z,1.1
2023-09-21T14:32:24.744Z,1.2
2023-09-21T14:33:40.880Z,1.2
2023-09-21T14:34:57.016Z,1.4
2023-09-21T14:36:13.149Z,1.4
2023-09-21T14:37:29.276Z,1.7
2023-09-21T14:38:44.424Z,1.2
2023-09-21T14:39:59.585Z,1.4
2023-09-21T14:41:15.719Z,1.2
2023-09-21T14:42:31.851Z,1.4
2023-09-21T14:43:47.983Z,1.1
2023-09-21T14:45:04.121Z,1.1
2023-09-21T14:46:20.243Z,1.2
2023-09-21T14:47:36.373Z,1.2
2023-09-21T14:48:52.500Z,1.2
2023-09-21T14:50:08.641Z,1.1
2023-09-21T14:51:24.780Z,1
2023-09-21T14:52:40.895Z,1.1
2023-09-21T14:53:57.039Z,1.1
2023-09-21T14:55:13.169Z,1.2
2023-09-21T14:56:29.303Z,1.4
2023-09-21T14:57:44.447Z,1.3
2023-09-21T14:59:00.577Z,1.4
2023-09-21T15:00:16.715Z,1.4
2023-09-21T15:01:32.838Z,1.7
2023-09-21T15:02:48.983Z,1.2
2023-09-21T15:04:05.112Z,1.3
2023-09-21T15:05:21.000Z,1.3
2023-09-21T15:06:37.369Z,1.5
2023-09-21T15:07:53.502Z,1.3
2023-09-21T15:09:09.631Z,1.2
2023-09-21T15:10:25.772Z,1.2
2023-09-21T15:11:41.901Z,1.4
2023-09-21T15:12:58.014Z,1.3
2023-09-21T15:14:14.182Z,1.4
2023-09-21T15:15:29.321Z,1.8
2023-09-21T15:16:45.447Z,1.5
2023-09-21T15:18:01.576Z,1.4
2023-09-21T15:19:17.711Z,1.9
2023-09-21T15:20:33.838Z,1.3
2023-09-21T15:21:49.975Z,1.4
2023-09-21T15:23:06.104Z,1.4
2023-09-21T15:24:22.236Z,1.6
2023-09-21T15:25:38.378Z,1.5
2023-09-21T15:26:54.510Z,1.4
2023-09-21T15:28:10.630Z,2.6
2023-09-21T15:29:26.773Z,1.6
2023-09-21T15:30:42.000Z,1.4
2023-09-21T15:31:59.030Z,1.5
2023-09-21T15:33:15.000Z,1.5
2023-09-21T15:34:31.304Z,2
2023-09-21T15:35:47.430Z,1.3
2023-09-21T15:37:03.562Z,1.4
2023-09-21T15:38:19.680Z,1.2
2023-09-21T15:39:35.825Z,1.2
2023-09-21T15:40:51.956Z,1.3
2023-09-21T15:42:08.087Z,1.5
2023-09-21T15:43:23.000Z,1.7
2023-09-21T15:44:39.367Z,1.1
2023-09-21T15:45:55.482Z,1.4
2023-09-21T15:47:11.632Z,1.2
2023-09-21T15:48:27.769Z,1.4
2023-09-21T15:49:43.902Z,1.6
2023-09-21T15:51:00.030Z,1.4
2023-09-21T15:52:16.170Z,1.7
2023-09-21T15:53:32.291Z,1.4
2023-09-21T15:54:48.430Z,1.4
2023-09-21T15:56:04.556Z,1.5
2023-09-21T15:57:20.691Z,1.3
2023-09-21T15:58:36.830Z,1.6
2023-09-21T15:59:52.953Z,1.4
2023-09-21T16:01:09.096Z,1.7
2023-09-21T16:02:25.220Z,1.4
2023-09-21T16:03:40.361Z,1.2
2023-09-21T16:04:56.501Z,1.3
2023-09-21T16:06:12.632Z,1.1
2023-09-21T16:07:28.761Z,1.4
2023-09-21T16:08:44.901Z,1.4
2023-09-21T16:10:01.030Z,1.3
2023-09-21T16:11:17.000Z,1.2
2023-09-21T16:12:33.289Z,1
2023-09-21T16:13:49.432Z,1.1
2023-09-21T16:15:05.558Z,1.1
2023-09-21T16:16:21.698Z,1
2023-09-21T16:17:37.820Z,1
2023-09-21T16:18:53.958Z,1
2023-09-21T16:20:10.091Z,0.9
2023-09-21T16:21:25.000Z,1.2
2023-09-21T16:22:41.369Z,1.2
2023-09-21T16:23:57.501Z,1
2023-09-21T16:25:13.637Z,1.3
2023-09-21T16:26:29.759Z,1.2
2023-09-21T16:27:45.893Z,1.5
2023-09-21T16:29:02.036Z,1.2
2023-09-21T16:30:18.160Z,1.2
2023-09-21T16:31:34.286Z,1
2023-09-21T16:32:50.420Z,1
2023-09-21T16:34:06.561Z,1
2023-09-21T16:35:22.686Z,1
2023-09-21T16:36:38.000Z,1.1
2023-09-21T16:37:54.952Z,1.4
2023-09-21T16:39:10.108Z,1.7
2023-09-21T16:40:26.241Z,1.3
2023-09-21T16:41:42.368Z,0.8
2023-09-21T16:42:58.497Z,1.2
2023-09-21T16:44:14.625Z,1
2023-09-21T16:45:30.757Z,1
2023-09-21T16:46:46.000Z,1.3
2023-09-21T16:48:03.017Z,1.5
2023-09-21T16:49:19.159Z,0.9
2023-09-21T16:50:35.297Z,1
2023-09-21T16:51:51.427Z,1.3
2023-09-21T16:53:07.553Z,0.9
2023-09-21T16:54:23.691Z,0.9
2023-09-21T16:55:38.827Z,0.8
2023-09-21T16:56:54.972Z,0.9
2023-09-21T16:58:11.097Z,1.2
2023-09-21T16:59:27.227Z,0.9
2023-09-21T17:00:43.366Z,1.1
2023-09-21T17:01:59.491Z,1.1
2023-09-21T17:03:15.630Z,1.3
2023-09-21T17:04:31.764Z,1.1
2023-09-21T17:05:47.890Z,1.4
2023-09-21T17:07:04.023Z,1.1
2023-09-21T17:08:20.157Z,1.7
2023-09-21T17:09:36.290Z,1.4
2023-09-21T17:10:52.414Z,1.8
2023-09-21T17:12:07.569Z,1.7
2023-09-21T17:13:23.701Z,1.4
2023-09-21T17:14:39.822Z,1.5
2023-09-21T17:15:55.960Z,1.6
2023-09-21T17:17:12.100Z,1.3
2023-09-21T17:18:28.221Z,1.6
2023-09-21T17:19:44.357Z,1.5
2023-09-21T17:21:00.490Z,1.6
2023-09-21T17:22:16.627Z,1.4
2023-09-21T17:23:32.756Z,1.3
2023-09-21T17:24:48.887Z,1.6
2023-09-21T17:26:05.014Z,1.6
2023-09-21T17:27:21.154Z,1.6
2023-09-21T17:28:37.288Z,1.4
2023-09-21T17:29:52.429Z,1.3
2023-09-21T17:31:08.566Z,1.6
2023-09-21T17:32:24.699Z,2.3
2023-09-21T17:33:40.824Z,1.9
2023-09-21T17:34:56.959Z,1.7
2023-09-21T17:36:13.087Z,1.5
2023-09-21T17:37:29.218Z,1.6